Flight Track Log - Related Links

Times and Time Zones

All times are in EDT time to prevent confusion due to time zone crossing. See the SKW5564 flight status page for this flight to view local times or setup timezone preferences in your user account.

Time Position Orientation Groundspeed Altitude Reporting Facility
EDT Latitude Longitude Course Direction KTS MPH feet Rate Location/Type
Sun 08:39:40 PM 33.7833 -116.3833 107° East 205 236 3,100  Level Southern California TRACON
Sun 08:40:40 PM 33.8167 -116.3833 360° North 176 203 4,300 1,100 Climbing Southern California TRACON
Sun 08:41:40 PM 33.8667 -116.4167 331° Northwest 184 212 5,300 950 Climbing Southern California TRACON
Sun 08:42:40 PM 33.8833 -116.4833 287° West 199 229 6,200 942 Climbing Southern California TRACON
Sun 08:43:41 PM 33.9000 -116.5500 287° West 202 232 7,200 1,087 Climbing Southern California TRACON
Sun 08:44:00 PM 33.8500 -116.9263 270° West  Level FlightAware Approximate
Sun 08:44:47 PM 33.9150 -116.6119 286° West 205 236 8,500  Level Los Angeles Center
Sun 08:46:01 PM 33.9289 -116.6811 284° West 209 241 9,200 701 Climbing Los Angeles Center
Sun 08:47:04 PM 33.9453 -116.7656 283° West 216 249 10,100 432 Climbing Los Angeles Center
Sun 08:48:06 PM 33.9403 -116.8481 266° West 244 281 10,100 -62 Level Los Angeles Center
Sun 08:48:41 PM 33.9500 -116.9167 280° West 259 298 10,000 -126 Descending Southern California TRACON
Sun 08:49:41 PM 33.9333 -117.0000 256° West 267 307 9,900 -300 Descending Southern California TRACON
Sun 08:50:41 PM 33.9333 -117.1000 270° West 284 327 9,400 -500 Descending Southern California TRACON
Sun 08:51:41 PM 33.9333 -117.1833 270° West 286 329 8,900 -522 Descending Southern California TRACON
Sun 08:52:36 PM 33.9333 -117.2833 270° West 284 327 8,400 -470 Descending Southern California TRACON
Sun 08:53:36 PM 33.9333 -117.3667 270° West 282 325 8,000 -250 Descending Southern California TRACON
Sun 08:54:36 PM 33.9167 -117.4667 259° West 275 316 7,900  Descending Southern California TRACON
Sun 08:55:42 PM 33.9167 -117.5667 270° West 271 312 8,000 50 Climbing Southern California TRACON
Sun 08:56:36 PM 33.9167 -117.6333 270° West 272 313 8,000 -53 Level Southern California TRACON
Sun 08:57:36 PM 33.9167 -117.7333 270° West 268 308 7,900 -50 Descending Southern California TRACON
Sun 08:58:36 PM 33.9333 -117.8167 284° West 265 305 7,900 -150 Level Southern California TRACON
Sun 08:59:36 PM 33.9500 -117.9000 284° West 273 314 7,600 -550 Descending Southern California TRACON
Sun 09:00:36 PM 33.9667 -118.0000 281° West 290 334 6,800 -1,250 Descending Southern California TRACON
Sun 09:01:36 PM 33.9667 -118.1000 270° West 285 328 5,100 -1,831 Descending Southern California TRACON
Sun 09:02:34 PM 33.9592 -118.1719 263° West 278 320 3,200 -1,400 Descending Los Angeles Center
Sun 09:03:36 PM 33.9514 -118.2533 263° West 257 296 2,300 -919 Descending Los Angeles Center
Sun 09:04:38 PM 33.9450 -118.3111 262° West 206 237 1,300 -823 Descending Los Angeles Center
Sun 09:05:40 PM 33.9408 -118.3547 263° West 160 184 600 -532 Descending Los Angeles Center
Sun 09:06:42 PM 33.9367 -118.4036 264° West 146 168 200 -387 Descending Los Angeles Center
Sun 09:08:00 PM 33.9425 -118.4081 138° Southeast  Level Estimated

Login

Don't have an account? Register now (free) for customized features, flight alerts, and more!